createdAt,value
2018-05-19T00:00:28.854Z,12.60
2018-05-19T00:02:55.042Z,12.60
2018-05-19T00:05:21.263Z,12.50
2018-05-19T00:07:47.464Z,12.50
2018-05-19T00:10:13.675Z,12.50
2018-05-19T00:12:40.011Z,12.50
2018-05-19T00:15:06.184Z,12.50
2018-05-19T00:17:32.366Z,12.60
2018-05-19T00:19:59.682Z,12.60
2018-05-19T00:22:25.870Z,12.50
2018-05-19T00:27:20.044Z,12.60
2018-05-19T00:29:47.375Z,12.50
2018-05-19T00:32:13.560Z,12.50
2018-05-19T00:34:39.767Z,12.50
2018-05-19T00:37:05.943Z,12.50
2018-05-19T00:39:32.130Z,12.40
2018-05-19T00:41:58.368Z,12.50
2018-05-19T00:44:24.556Z,12.50
2018-05-19T00:46:50.749Z,12.50
2018-05-19T00:49:16.950Z,12.40
2018-05-19T00:51:43.142Z,12.40
2018-05-19T00:54:09.330Z,12.50
2018-05-19T00:56:35.526Z,12.40
2018-05-19T00:59:01.700Z,12.30
2018-05-19T01:01:27.866Z,12.30
2018-05-19T01:03:54.063Z,12.30
2018-05-19T01:06:20.263Z,12.30
2018-05-19T01:08:47.548Z,12.40
2018-05-19T01:11:13.758Z,12.30
2018-05-19T01:13:39.949Z,12.30
2018-05-19T01:16:06.127Z,12.20
2018-05-19T01:18:32.327Z,12.10
2018-05-19T01:20:58.549Z,12.20
2018-05-19T01:23:25.558Z,12.30
2018-05-19T01:25:51.752Z,12.20
2018-05-19T01:28:17.914Z,12.30
2018-05-19T01:30:44.152Z,12.30
2018-05-19T01:33:10.339Z,12.10
2018-05-19T01:35:36.527Z,12.10
2018-05-19T01:38:02.759Z,12.20
2018-05-19T01:40:28.974Z,12.10
2018-05-19T01:42:56.242Z,12.10
2018-05-19T01:45:22.429Z,12.10
2018-05-19T01:47:48.614Z,12.10
2018-05-19T01:50:14.796Z,12.10
2018-05-19T01:52:40.970Z,12.20
2018-05-19T01:55:07.151Z,12.20
2018-05-19T02:00:01.218Z,11.90
2018-05-19T02:02:27.427Z,12.10
2018-05-19T02:04:53.590Z,12.00
2018-05-19T02:07:19.763Z,12.10
2018-05-19T02:09:45.987Z,12.10
2018-05-19T02:12:12.159Z,12.10
2018-05-19T02:14:39.438Z,12.10
2018-05-19T02:17:06.743Z,12.10
2018-05-19T02:19:32.922Z,12.10
2018-05-19T02:22:00.234Z,11.90
2018-05-19T02:24:26.435Z,11.80
2018-05-19T02:26:52.611Z,11.90
2018-05-19T02:29:18.798Z,11.90
2018-05-19T02:31:44.989Z,11.80
2018-05-19T02:34:11.167Z,11.90
2018-05-19T02:36:37.352Z,11.80
2018-05-19T02:41:31.464Z,11.90
2018-05-19T02:43:58.773Z,11.90
2018-05-19T02:46:24.981Z,11.90
2018-05-19T02:51:20.137Z,11.80
2018-05-19T02:53:46.315Z,11.80
2018-05-19T02:56:12.475Z,11.80
2018-05-19T02:58:38.662Z,11.70
2018-05-19T03:01:04.859Z,11.40
2018-05-19T03:03:31.059Z,11.60
2018-05-19T03:05:57.238Z,11.60
2018-05-19T03:08:23.439Z,11.40
2018-05-19T03:10:49.607Z,11.40
2018-05-19T03:13:15.803Z,11.50
2018-05-19T03:15:41.987Z,11.40
2018-05-19T03:18:08.163Z,11.50
2018-05-19T03:20:35.456Z,11.50
2018-05-19T03:23:01.636Z,11.40
2018-05-19T03:25:27.807Z,11.30
2018-05-19T03:27:53.982Z,11.40
2018-05-19T03:30:20.189Z,11.40
2018-05-19T03:32:47.466Z,11.40
2018-05-19T03:40:09.901Z,11.50
2018-05-19T03:42:36.440Z,11.50
2018-05-19T03:45:02.976Z,11.40
2018-05-19T03:47:29.530Z,11.60
2018-05-19T03:49:56.009Z,11.50
2018-05-19T03:52:22.212Z,11.30
2018-05-19T03:54:49.496Z,11.30
2018-05-19T03:57:27.771Z,11.30
2018-05-19T04:00:06.099Z,11.40
2018-05-19T04:02:35.168Z,11.30
2018-05-19T04:05:01.367Z,11.30
2018-05-19T04:07:29.042Z,11.30
2018-05-19T04:09:56.098Z,11.40
2018-05-19T04:12:22.266Z,11.30
2018-05-19T04:14:48.464Z,11.30
2018-05-19T04:17:14.659Z,11.30
2018-05-19T04:19:40.835Z,11.40
2018-05-19T04:22:07.034Z,11.50
2018-05-19T04:24:33.226Z,11.50
2018-05-19T04:26:59.420Z,11.30
2018-05-19T04:29:25.649Z,11.40
2018-05-19T04:31:51.840Z,11.40
2018-05-19T04:34:18.016Z,11.30
2018-05-19T04:39:12.119Z,11.40
2018-05-19T04:41:38.394Z,11.30
2018-05-19T04:44:04.579Z,11.40
2018-05-19T04:46:30.811Z,11.50
2018-05-19T04:48:56.967Z,11.40
2018-05-19T04:51:23.142Z,11.40
2018-05-19T04:53:50.445Z,11.50
2018-05-19T04:56:16.623Z,11.40
2018-05-19T04:58:43.455Z,11.50
2018-05-19T05:01:09.682Z,11.50
2018-05-19T05:03:35.854Z,11.50
2018-05-19T05:06:02.044Z,11.70
2018-05-19T05:08:28.242Z,11.60
2018-05-19T05:10:54.436Z,11.70
2018-05-19T05:13:20.611Z,11.60
2018-05-19T05:15:46.805Z,11.80
2018-05-19T05:18:12.963Z,11.80
2018-05-19T05:20:39.146Z,11.80
2018-05-19T05:23:05.367Z,11.60
2018-05-19T05:25:31.568Z,11.80
2018-05-19T05:27:57.734Z,11.70
2018-05-19T05:30:23.919Z,11.60
2018-05-19T05:35:18.079Z,11.70
2018-05-19T05:37:44.353Z,11.80
2018-05-19T05:40:10.496Z,11.70
2018-05-19T05:42:36.673Z,11.70
2018-05-19T05:45:02.874Z,11.70
2018-05-19T05:47:29.039Z,11.70
2018-05-19T05:49:55.230Z,11.70
2018-05-19T05:52:21.442Z,11.70
2018-05-19T05:57:15.542Z,11.80
2018-05-19T05:59:41.797Z,11.70
2018-05-19T06:02:08.003Z,11.90
2018-05-19T06:04:34.171Z,12.00
2018-05-19T06:07:01.483Z,12.10
2018-05-19T06:09:27.678Z,12.10
2018-05-19T06:11:54.970Z,12.40
2018-05-19T06:14:21.178Z,12.30
2018-05-19T06:16:48.500Z,12.40
2018-05-19T06:19:14.689Z,12.40
2018-05-19T06:21:40.877Z,12.20
2018-05-19T06:24:07.118Z,12.50
2018-05-19T06:26:34.256Z,12.50
2018-05-19T06:29:00.626Z,12.50
2018-05-19T06:31:28.215Z,12.50
2018-05-19T06:33:54.450Z,12.60
2018-05-19T06:36:20.681Z,12.60
2018-05-19T06:38:47.968Z,12.60
2018-05-19T06:41:15.762Z,12.80
2018-05-19T06:43:41.962Z,12.90
2018-05-19T06:46:08.228Z,12.70
2018-05-19T06:48:35.714Z,13.00
2018-05-19T06:51:01.939Z,13.00
2018-05-19T06:53:28.120Z,12.80
2018-05-19T06:55:55.531Z,13.10
2018-05-19T06:58:21.776Z,13.10
2018-05-19T07:00:47.995Z,13.10
2018-05-19T07:03:14.162Z,13.10
2018-05-19T07:05:40.362Z,13.30
2018-05-19T07:08:09.875Z,13.60
2018-05-19T07:10:36.168Z,13.60
2018-05-19T07:13:02.403Z,13.70
2018-05-19T07:15:28.637Z,13.80
2018-05-19T07:17:54.911Z,13.90
2018-05-19T07:20:21.114Z,14.00
2018-05-19T07:22:47.302Z,14.10
2018-05-19T07:25:13.475Z,14.00
2018-05-19T07:27:39.777Z,14.30
2018-05-19T07:30:06.078Z,14.30
2018-05-19T07:32:32.605Z,14.50
2018-05-19T07:35:00.139Z,14.80
2018-05-19T07:37:26.941Z,14.80
2018-05-19T07:39:53.399Z,14.90
2018-05-19T07:42:19.951Z,14.90
2018-05-19T07:44:46.420Z,15.00
2018-05-19T07:47:12.639Z,15.10
2018-05-19T07:49:38.901Z,15.20
2018-05-19T07:52:05.181Z,15.10
2018-05-19T07:54:31.494Z,15.40
2018-05-19T07:56:57.727Z,15.60
2018-05-19T07:59:23.994Z,15.80
2018-05-19T08:01:50.175Z,15.90
2018-05-19T08:04:16.376Z,16.10
2018-05-19T08:06:42.602Z,16.20
2018-05-19T08:09:08.810Z,16.30
2018-05-19T08:11:35.094Z,16.60
2018-05-19T08:14:01.286Z,16.90
2018-05-19T08:16:27.481Z,17.00
2018-05-19T08:18:53.782Z,17.10
2018-05-19T08:21:19.993Z,17.40
2018-05-19T08:23:47.386Z,17.30
2018-05-19T08:26:13.633Z,17.30
2018-05-19T08:28:39.854Z,17.40
2018-05-19T08:31:06.048Z,17.50
2018-05-19T08:33:32.271Z,17.40
2018-05-19T08:35:58.486Z,17.10
2018-05-19T08:38:24.674Z,17.10
2018-05-19T08:40:50.858Z,17.20
2018-05-19T08:45:45.088Z,17.40
2018-05-19T08:48:12.421Z,17.40
2018-05-19T08:50:38.723Z,17.20
2018-05-19T08:53:06.375Z,17.50
2018-05-19T08:55:33.890Z,17.60
2018-05-19T08:58:00.146Z,17.50
2018-05-19T09:00:27.343Z,17.80
2018-05-19T09:02:54.652Z,18.30
2018-05-19T09:05:20.858Z,18.30
2018-05-19T09:07:47.643Z,18.30
2018-05-19T09:10:13.842Z,18.70
2018-05-19T09:12:40.098Z,18.50
2018-05-19T09:15:06.242Z,18.50
2018-05-19T09:17:33.563Z,18.60
2018-05-19T09:19:59.763Z,18.60
2018-05-19T09:22:26.050Z,18.70
2018-05-19T09:24:52.240Z,18.70
2018-05-19T09:27:18.512Z,18.80
2018-05-19T09:29:44.729Z,19.00
2018-05-19T09:32:12.036Z,18.90
2018-05-19T09:34:38.315Z,18.80
2018-05-19T09:37:05.616Z,19.50
2018-05-19T09:39:31.850Z,19.50
2018-05-19T09:41:58.083Z,19.40
2018-05-19T09:44:24.287Z,19.20
2018-05-19T09:46:50.684Z,19.10
2018-05-19T09:49:16.917Z,19.10
2018-05-19T09:51:43.111Z,19.20
2018-05-19T09:54:09.318Z,19.10
2018-05-19T09:56:35.578Z,19.30
2018-05-19T09:59:01.794Z,19.30
2018-05-19T10:01:28.198Z,19.70
2018-05-19T10:03:54.507Z,19.60
2018-05-19T10:06:20.801Z,19.40
2018-05-19T10:08:48.175Z,19.90
2018-05-19T10:11:14.383Z,19.90
2018-05-19T10:13:41.267Z,19.80
2018-05-19T10:16:07.483Z,19.90
2018-05-19T10:18:33.783Z,20.00
2018-05-19T10:21:00.101Z,20.10
2018-05-19T10:23:26.425Z,20.10
2018-05-19T10:25:52.779Z,20.60
2018-05-19T10:28:19.231Z,20.70
2018-05-19T10:30:45.540Z,21.00
2018-05-19T10:33:11.914Z,20.80
2018-05-19T10:35:38.847Z,21.00
2018-05-19T10:38:05.073Z,21.00
2018-05-19T10:40:31.330Z,21.00
2018-05-19T10:42:57.582Z,21.20
2018-05-19T10:45:25.176Z,21.50
2018-05-19T10:47:52.344Z,21.40
2018-05-19T10:50:18.670Z,21.20
2018-05-19T10:52:46.560Z,21.60
2018-05-19T10:55:12.783Z,21.70
2018-05-19T10:57:40.096Z,21.80
2018-05-19T11:00:06.328Z,21.90
2018-05-19T11:02:32.625Z,22.30
2018-05-19T11:04:58.834Z,21.80
2018-05-19T11:07:25.072Z,22.00
2018-05-19T11:09:51.399Z,22.30
2018-05-19T11:12:17.552Z,22.60
2018-05-19T11:14:43.759Z,23.00
2018-05-19T11:17:11.445Z,23.10
2018-05-19T11:19:37.667Z,23.10
2018-05-19T11:22:06.119Z,23.40
2018-05-19T11:24:32.383Z,23.40
2018-05-19T11:26:58.571Z,23.70
2018-05-19T11:29:24.793Z,23.60
2018-05-19T11:31:51.088Z,23.50
2018-05-19T11:34:17.308Z,23.40
2018-05-19T11:36:43.607Z,24.00
2018-05-19T11:39:09.928Z,23.70
2018-05-19T11:41:36.189Z,23.80
2018-05-19T11:44:02.390Z,24.40
2018-05-19T11:46:28.584Z,24.20
2018-05-19T11:48:55.898Z,26.40
2018-05-19T11:51:22.134Z,26.40
2018-05-19T11:53:48.424Z,27.30
2018-05-19T11:56:14.648Z,28.40
2018-05-19T11:58:40.832Z,29.00
2018-05-19T12:01:07.040Z,30.70
2018-05-19T12:03:33.994Z,32.00
2018-05-19T12:06:00.195Z,32.00
2018-05-19T12:08:26.425Z,32.40
2018-05-19T12:10:52.666Z,32.50
2018-05-19T12:13:18.851Z,32.60
2018-05-19T12:15:45.045Z,31.80
2018-05-19T12:18:11.247Z,31.70
2018-05-19T12:20:37.479Z,31.00
2018-05-19T12:23:03.748Z,30.00
2018-05-19T12:25:29.943Z,29.20
2018-05-19T12:27:56.178Z,29.00
2018-05-19T12:30:22.384Z,28.70
2018-05-19T12:32:48.567Z,28.70
2018-05-19T12:35:14.770Z,28.90
2018-05-19T12:37:40.977Z,28.20
2018-05-19T12:40:07.365Z,27.70
2018-05-19T12:42:33.527Z,27.40
2018-05-19T12:44:59.859Z,27.60
2018-05-19T12:47:26.117Z,28.10
2018-05-19T12:49:52.411Z,28.50
2018-05-19T12:52:18.622Z,29.20
2018-05-19T12:54:44.811Z,29.70
2018-05-19T12:57:10.981Z,29.80
2018-05-19T12:59:37.170Z,30.20
2018-05-19T13:02:04.458Z,30.90
2018-05-19T13:04:30.638Z,30.90
2018-05-19T13:06:56.956Z,30.40
2018-05-19T13:09:23.122Z,30.20
2018-05-19T13:11:49.307Z,30.20
2018-05-19T13:14:16.632Z,30.40
2018-05-19T13:16:42.819Z,30.40
2018-05-19T13:19:09.743Z,30.10
2018-05-19T13:21:35.943Z,30.10
2018-05-19T13:24:02.215Z,29.10
2018-05-19T13:26:28.414Z,28.80
2018-05-19T13:28:54.717Z,28.80
2018-05-19T13:31:21.673Z,28.40
2018-05-19T13:33:47.988Z,28.40
2018-05-19T13:36:14.122Z,27.90
2018-05-19T13:38:40.304Z,27.20
2018-05-19T13:41:06.488Z,27.10
2018-05-19T13:43:32.767Z,26.70
2018-05-19T13:45:58.955Z,26.50
2018-05-19T13:48:25.168Z,26.10
2018-05-19T13:50:51.340Z,26.20
2018-05-19T13:53:17.529Z,25.10
2018-05-19T13:55:43.730Z,24.70
2018-05-19T13:58:09.955Z,24.90
2018-05-19T14:00:36.250Z,25.10
2018-05-19T14:03:02.478Z,25.00
2018-05-19T14:05:28.718Z,25.40
2018-05-19T14:07:55.062Z,25.20
2018-05-19T14:10:21.371Z,25.10
2018-05-19T14:12:47.653Z,24.90
2018-05-19T14:15:14.488Z,25.40
2018-05-19T14:17:40.720Z,25.70
2018-05-19T14:20:07.002Z,26.50
2018-05-19T14:22:33.216Z,26.40
2018-05-19T14:24:59.444Z,26.60
2018-05-19T14:27:25.739Z,26.70
2018-05-19T14:29:52.015Z,26.60
2018-05-19T14:32:19.402Z,26.60
2018-05-19T14:34:45.582Z,26.50
2018-05-19T14:37:11.782Z,27.10
2018-05-19T14:39:37.972Z,27.40
2018-05-19T14:42:04.231Z,27.30
2018-05-19T14:44:30.423Z,28.20
2018-05-19T14:46:56.592Z,28.40
2018-05-19T14:49:22.798Z,28.10
2018-05-19T14:51:48.982Z,28.10
2018-05-19T14:54:15.182Z,27.40
2018-05-19T14:56:41.516Z,26.80
2018-05-19T14:59:07.769Z,26.50
2018-05-19T15:01:34.040Z,26.10
2018-05-19T15:04:00.269Z,25.90
2018-05-19T15:06:26.465Z,26.20
2018-05-19T15:11:20.576Z,24.50
2018-05-19T15:13:47.907Z,22.80
2018-05-19T15:16:14.110Z,22.70
2018-05-19T15:18:40.286Z,22.70
2018-05-19T15:21:06.453Z,22.40
2018-05-19T15:23:32.651Z,22.20
2018-05-19T15:25:58.886Z,21.60
2018-05-19T15:28:25.132Z,21.50
2018-05-19T15:30:51.387Z,21.30
2018-05-19T15:33:17.542Z,21.30
2018-05-19T15:35:43.730Z,21.20
2018-05-19T15:38:09.956Z,20.90
2018-05-19T15:40:37.624Z,20.70
2018-05-19T15:43:03.821Z,20.60
2018-05-19T15:45:30.040Z,20.60
2018-05-19T15:47:56.219Z,20.30
2018-05-19T15:50:22.430Z,20.50
2018-05-19T15:52:48.639Z,20.40
2018-05-19T15:55:15.942Z,20.30
2018-05-19T15:57:42.137Z,20.30
2018-05-19T16:00:08.386Z,20.20
2018-05-19T16:02:36.064Z,20.00
2018-05-19T16:07:30.178Z,19.90
2018-05-19T16:09:56.418Z,20.00
2018-05-19T16:12:22.610Z,20.00
2018-05-19T16:14:48.811Z,20.00
2018-05-19T16:17:14.998Z,19.90
2018-05-19T16:19:41.177Z,19.80
2018-05-19T16:22:07.371Z,19.90
2018-05-19T16:24:33.539Z,19.90
2018-05-19T16:26:59.735Z,20.00
2018-05-19T16:29:25.951Z,20.00
2018-05-19T16:31:53.254Z,20.00
2018-05-19T16:34:19.438Z,19.90
2018-05-19T16:36:45.630Z,19.90
2018-05-19T16:39:11.810Z,19.80
2018-05-19T16:41:37.986Z,19.90
2018-05-19T16:44:05.299Z,19.90
2018-05-19T16:46:31.499Z,19.90
2018-05-19T16:48:58.767Z,19.90
2018-05-19T16:51:24.954Z,19.90
2018-05-19T16:53:51.118Z,19.80
2018-05-19T16:56:17.308Z,19.60
2018-05-19T16:58:43.542Z,19.60
2018-05-19T17:01:09.722Z,19.60
2018-05-19T17:03:35.891Z,19.60
2018-05-19T17:06:02.092Z,19.70
2018-05-19T17:08:28.307Z,19.80
2018-05-19T17:10:54.498Z,19.70
2018-05-19T17:13:20.714Z,19.50
2018-05-19T17:15:46.899Z,19.60
2018-05-19T17:18:14.256Z,19.50
2018-05-19T17:20:40.404Z,19.50
2018-05-19T17:23:07.718Z,19.60
2018-05-19T17:25:33.891Z,19.60
2018-05-19T17:28:00.225Z,19.40
2018-05-19T17:30:26.316Z,19.40
2018-05-19T17:32:52.490Z,19.30
2018-05-19T17:35:18.697Z,19.30
2018-05-19T17:37:44.893Z,19.20
2018-05-19T17:40:11.072Z,19.10
2018-05-19T17:42:38.362Z,19.00
2018-05-19T17:45:04.572Z,19.00
2018-05-19T17:47:31.920Z,18.80
2018-05-19T17:49:58.127Z,18.90
2018-05-19T17:52:24.328Z,18.70
2018-05-19T17:54:50.518Z,18.80
2018-05-19T17:57:16.791Z,18.70
2018-05-19T17:59:42.907Z,18.70
2018-05-19T18:02:09.112Z,18.70
2018-05-19T18:04:35.379Z,18.60
2018-05-19T18:07:01.566Z,18.50
2018-05-19T18:11:55.675Z,18.50
2018-05-19T18:14:23.071Z,18.40
2018-05-19T18:16:49.266Z,18.40
2018-05-19T18:19:15.460Z,18.30
2018-05-19T18:21:41.638Z,18.20
2018-05-19T18:24:07.810Z,18.30
2018-05-19T18:26:35.199Z,18.20
2018-05-19T18:29:01.389Z,18.20
2018-05-19T18:31:27.606Z,18.20
2018-05-19T18:33:53.790Z,18.10
2018-05-19T18:36:19.971Z,18.20
2018-05-19T18:38:46.137Z,18.20
2018-05-19T18:41:12.330Z,18.00
2018-05-19T18:46:07.570Z,17.90
2018-05-19T18:48:33.788Z,17.90
2018-05-19T18:50:59.995Z,17.90
2018-05-19T18:53:26.159Z,17.80
2018-05-19T18:55:52.359Z,17.80
2018-05-19T18:58:18.543Z,17.90
2018-05-19T19:00:44.730Z,17.70
2018-05-19T19:03:11.250Z,17.70
2018-05-19T19:05:37.730Z,17.70
2018-05-19T19:08:03.907Z,17.60
2018-05-19T19:10:30.392Z,17.40
2018-05-19T19:12:57.939Z,17.50
2018-05-19T19:15:24.369Z,17.50
2018-05-19T19:17:50.594Z,17.50
2018-05-19T19:20:16.806Z,17.40
2018-05-19T19:22:44.474Z,17.30
2018-05-19T19:25:11.776Z,17.30
2018-05-19T19:27:37.957Z,17.30
2018-05-19T19:30:04.151Z,17.20
2018-05-19T19:32:30.463Z,17.10
2018-05-19T19:34:56.594Z,17.10
2018-05-19T19:37:22.803Z,17.00
2018-05-19T19:39:48.981Z,17.00
2018-05-19T19:42:16.286Z,17.00
2018-05-19T19:44:42.494Z,17.00
2018-05-19T19:47:09.789Z,17.00
2018-05-19T19:49:35.962Z,17.10
2018-05-19T19:52:02.154Z,17.00
2018-05-19T19:54:29.825Z,17.00
2018-05-19T19:59:23.898Z,16.90
2018-05-19T20:01:50.078Z,16.70
2018-05-19T20:04:17.379Z,16.80
2018-05-19T20:06:43.563Z,16.80
2018-05-19T20:09:09.758Z,16.60
2018-05-19T20:11:35.959Z,16.60
2018-05-19T20:14:03.635Z,16.80
2018-05-19T20:16:29.855Z,16.70
2018-05-19T20:18:56.034Z,16.70
2018-05-19T20:21:22.219Z,16.70
2018-05-19T20:23:48.440Z,16.60
2018-05-19T20:26:14.628Z,16.50
2018-05-19T20:28:40.802Z,16.50
2018-05-19T20:31:07.123Z,16.50
2018-05-19T20:33:34.421Z,16.50
2018-05-19T20:36:00.610Z,16.40
2018-05-19T20:38:26.808Z,16.40
2018-05-19T20:40:53.700Z,16.30
2018-05-19T20:43:19.891Z,16.20
2018-05-19T20:45:47.333Z,16.30
2018-05-19T20:48:13.498Z,16.20
2018-05-19T20:50:40.807Z,16.20
2018-05-19T20:53:07.040Z,16.20
2018-05-19T20:55:33.210Z,16.00
2018-05-19T20:57:59.397Z,16.10
2018-05-19T21:00:25.620Z,16.10
2018-05-19T21:02:52.921Z,16.00
2018-05-19T21:05:19.098Z,15.90
2018-05-19T21:07:45.318Z,16.00
2018-05-19T21:10:11.494Z,16.00
2018-05-19T21:12:37.682Z,16.10
2018-05-19T21:15:03.887Z,15.90
2018-05-19T21:19:58.055Z,15.90
2018-05-19T21:22:25.300Z,16.00
2018-05-19T21:24:51.519Z,15.90
2018-05-19T21:27:18.951Z,16.00
2018-05-19T21:29:45.144Z,16.00
2018-05-19T21:32:11.375Z,15.80
2018-05-19T21:37:05.551Z,15.80
2018-05-19T21:39:31.759Z,15.80
2018-05-19T21:41:57.947Z,15.90
2018-05-19T21:44:24.132Z,16.00
2018-05-19T21:46:51.781Z,16.00
2018-05-19T21:49:17.977Z,16.00
2018-05-19T21:51:44.187Z,15.80
2018-05-19T21:56:38.319Z,15.90
2018-05-19T21:59:04.591Z,15.90
2018-05-19T22:01:30.816Z,15.80
2018-05-19T22:03:57.079Z,15.80
2018-05-19T22:06:23.261Z,15.80
2018-05-19T22:08:50.649Z,15.70
2018-05-19T22:11:16.827Z,15.60
2018-05-19T22:13:43.025Z,15.60
2018-05-19T22:21:05.215Z,15.60
2018-05-19T22:23:31.540Z,15.70
2018-05-19T22:25:57.723Z,15.70
2018-05-19T22:28:23.892Z,15.60
2018-05-19T22:30:50.174Z,15.70
2018-05-19T22:33:16.351Z,15.60
2018-05-19T22:35:42.539Z,15.60
2018-05-19T22:38:08.747Z,15.60
2018-05-19T22:40:34.925Z,15.40
2018-05-19T22:43:01.106Z,15.40
2018-05-19T22:45:27.379Z,15.40
2018-05-19T22:47:53.551Z,15.50
2018-05-19T22:50:19.755Z,15.40
2018-05-19T22:52:46.111Z,15.40
2018-05-19T22:55:12.310Z,15.50
2018-05-19T23:00:06.431Z,15.40
2018-05-19T23:02:33.734Z,15.30
2018-05-19T23:04:59.923Z,15.20
2018-05-19T23:07:26.107Z,15.30
2018-05-19T23:09:52.278Z,15.30
2018-05-19T23:12:18.447Z,15.20
2018-05-19T23:14:45.746Z,15.10
2018-05-19T23:17:11.925Z,15.00
2018-05-19T23:19:38.111Z,15.10
2018-05-19T23:22:04.317Z,15.10
2018-05-19T23:24:30.510Z,15.10
2018-05-19T23:26:56.707Z,15.10
2018-05-19T23:29:22.909Z,15.10
2018-05-19T23:31:49.063Z,15.10
2018-05-19T23:34:15.239Z,15.00
2018-05-19T23:36:42.927Z,15.00
2018-05-19T23:39:09.134Z,14.90
2018-05-19T23:41:35.586Z,15.00
2018-05-19T23:44:01.799Z,15.00
2018-05-19T23:46:29.053Z,15.10
2018-05-19T23:48:55.341Z,15.20
2018-05-19T23:51:22.655Z,15.20
2018-05-19T23:53:52.347Z,15.10
2018-05-19T23:56:19.634Z,15.10
2018-05-19T23:58:57.342Z,15.00
